Aeroporto :
LOGIN :

Iscrizione | Disclaimer

   EN    FR    IT 

 










Sommario :    VFR   VFR Marginale   IFR   IFR Intensivo   IFR Molto Intensivo
Visibilità : 
Base nubi : 
>= 8 km
>= 3000ft
5 / 8 km
1000 / 3000 ft
1500m / 5 km
500 / 1000 ft
800 / 1500m
200 / 500 ft
< 800m
< 200 ft
Simboli :   Temporali  Nebbia  Neve Forte  Precipitazioni Forti  Vento > 20 kt
SIGMETs :   Varie  Temporali  Ghiacco  Turbolenza  Onda orograficha  Ceneri Vulcaniche






- Altitudine del aeroporto : 335 ft
- Codice IATA : BEG


LYBE - Belgrade Nikola Tesla

ULTIMO METAR :
  • 221300Z 26003KT 220V290 CAVOK 05/M02 Q1029 NOSIG

METARs OBSOLETI :
  • 221230Z 34003KT 290V030 CAVOK 05/M02 Q1030 NOSIG
  • 221200Z VRB02KT CAVOK 05/M02 Q1031 NOSIG
  • 221130Z VRB01KT 8000 NSC 04/M03 Q1031 NOSIG
  • 221100Z VRB02KT 8000 NSC 04/M03 Q1032 NOSIG
  • 221030Z VRB03KT 8000 NSC 03/M03 Q1032 NOSIG

TAF TAF LYBE
Valido dal 22 a 12 ore il 23 a 12 ore UTC


221100Z 2212/2312 19005KT CAVOK TX05/2213Z TNM03/2306Z
BECMG 2218/2220 32010KT
BECMG 2219/2221 BKN015 BKN027
BECMG 2308/2310 03005KT SCT020



MetMap, La meteo Aeronautica in un colpo d'occhio ! - Copyright ORBIFLY Dicembre 2007 - Disclaimer

ORBIFLY MET'MAP TEAM :

Programmazione e sviluppo : Alexandra Zaïnal
Concezione : Baudouin d'Aumeries
Aiuto per la programmazione : Marc-Olivier Méhu
Supporto tecnico e logistico : Manuel Goepfert
Aiuto per la traduzione : Arnaldo La Scala

Contatto : metmap@orbifly.com




FONTI E CREDITI :

   NOAA